Adriatic Sea — WDB5553 — position and weather

sailwx.info

Track history (hours):
 
Tides and Currents Weather Stations Pressure Air Temp Water Temp Dewpoint Dewpoint Depression Visibility Wind Speed Wind Dir Waves Ship Positions

Adriatic Sea

Owner: Kirby Offshore Marine, LLC, Seattle, WA. More information available from US FCC via Universal Licensing System and Coast Guard Vessel Documentation Center.

Last reported at 2014-Dec-14 16:17 UTC. Time now 2014-Dec-18 20:13 UTC.
Position N 45°05' W 125°00'.

Length 42 m.

Type: Tug. MMSI: 366910890.

Date/timePositionNaut miles runAvg speedWind from/ knotsBaromVisibWave heightAir tempDewpointWater temp
2014-Dec-14 16:17N 45°05' W 125°00'9 4.5
2014-Dec-14 14:14N 45°14' W 124°60'4 4.9
2014-Dec-14 13:20N 45°18' W 125°00'4 5.3
2014-Dec-14 12:33N 45°22' W 124°60'6 5.6
2014-Dec-14 11:33N 45°28' W 125°00'6 5.9
2014-Dec-14 10:33N 45°34' W 125°00'6 6.2
2014-Dec-14 09:33N 45°40' W 125°00'7 6.8
2014-Dec-14 08:33N 45°47' W 125°00'7 7.0
2014-Dec-14 07:33N 45°54' W 125°00'7 7.2
2014-Dec-14 06:33N 46°01' W 125°00'7 7.4
2014-Dec-14 05:33N 46°09' W 125°00'7 7.4
2014-Dec-14 04:33N 46°16' W 125°00'7 7.1
2014-Dec-14 03:33N 46°23' W 125°00'7 6.7
2014-Dec-14 02:33N 46°30' W 125°00'7 6.5
2014-Dec-14 01:33N 46°36' W 125°00'7 6.5
2014-Dec-14 00:28N 46°43' W 124°60'6 6.5
2014-Dec-13 23:33N 46°49' W 125°00'73 5.9
2014-Dec-13 11:11N 48°02' W 125°10'4 5.7
2014-Dec-13 10:28N 48°06' W 125°08'6 6.0
2014-Dec-13 09:30N 48°11' W 125°05'6 6.2
2014-Dec-13 08:33N 48°17' W 125°02'7 6.5
2014-Dec-13 07:33N 48°23' W 124°58'6 6.4
2014-Dec-13 06:33N 48°27' W 124°51'8 7.5
2014-Dec-13 05:33N 48°25' W 124°40'8 7.6
2014-Dec-13 04:33N 48°22' W 124°29'7 6.8
2014-Dec-13 03:33N 48°19' W 124°20'6 6.1
2014-Dec-13 02:32N 48°17' W 124°11'6 6.2
2014-Dec-13 01:32N 48°14' W 124°03'6 6.3
2014-Dec-13 00:33N 48°12' W 123°54'7 7.3
2014-Dec-12 23:33N 48°12' W 123°43'8 7.5
2014-Dec-12 22:33N 48°12' W 123°32'7 6.6
2014-Dec-12 21:33N 48°08' W 123°24'1 1.1
2014-Dec-12 20:30N 48°08' W 123°25'0 0.0
2014-Dec-12 19:33N 48°08' W 123°25'0 0.1
2014-Dec-12 18:27N 48°08' W 123°25'0 0.0
2014-Dec-12 17:18N 48°08' W 123°25'0 0.1
2014-Dec-12 16:18N 48°08' W 123°25'0 0.0
2014-Dec-12 15:33N 48°08' W 123°25'0 0.0
2014-Dec-12 14:27N 48°08' W 123°25'0 0.0
2014-Dec-12 13:24N 48°08' W 123°25'0 0.0
2014-Dec-12 12:33N 48°08' W 123°25'0 0.0
2014-Dec-12 11:33N 48°08' W 123°25'0 0.1
2014-Dec-12 10:30N 48°08' W 123°25'0 0.0
2014-Dec-12 09:29N 48°08' W 123°25'0 0.0
2014-Dec-12 08:32N 48°08' W 123°25'0 0.0
2014-Dec-12 07:32N 48°08' W 123°25'0 0.1
2014-Dec-12 06:32N 48°07' W 123°25'0 0.0
2014-Dec-12 04:20N 48°08' W 123°25'0 0.1
2014-Dec-12 03:32N 48°08' W 123°25'0 0.0
2014-Dec-12 02:26N 48°08' W 123°25'0 0.0
2014-Dec-12 01:20N 48°08' W 123°25'0 0.0
2014-Dec-12 00:29N 48°08' W 123°25'0 0.1
2014-Dec-11 23:32N 48°08' W 123°25'0 0.0
2014-Dec-11 22:32N 48°08' W 123°25'0 0.0
2014-Dec-11 21:32N 48°08' W 123°25'0 0.0
2014-Dec-11 20:32N 48°08' W 123°25'0 0.0
2014-Dec-11 19:32N 48°08' W 123°25'0 0.0
2014-Dec-11 18:29N 48°08' W 123°25'0 0.0
2014-Dec-11 17:05N 48°08' W 123°25'0 0.0
2014-Dec-11 16:11N 48°08' W 123°25'0 0.0
2014-Dec-11 15:32N 48°08' W 123°25'0 0.0
2014-Dec-11 14:29N 48°08' W 123°25'0 0.0
2014-Dec-11 13:32N 48°08' W 123°25'0 0.0
2014-Dec-11 12:32N 48°08' W 123°25'0 0.0
2014-Dec-11 11:29N 48°08' W 123°25'0 0.0
2014-Dec-11 10:32N 48°08' W 123°25'0 0.0
2014-Dec-11 09:29N 48°08' W 123°25'0 0.0
2014-Dec-11 08:29N 48°08' W 123°25'0 0.0
2014-Dec-11 07:29N 48°08' W 123°25'0 0.0
2014-Dec-11 06:32N 48°08' W 123°25'0 0.1
2014-Dec-11 05:32N 48°08' W 123°25'0 0.0
2014-Dec-11 04:32N 48°08' W 123°25'0 0.0
2014-Dec-11 03:32N 48°08' W 123°25'0 0.1
2014-Dec-11 02:32N 48°08' W 123°25'0 0.0
2014-Dec-11 01:32N 48°08' W 123°25'0 0.1
2014-Dec-11 00:23N 48°08' W 123°25'0 0.1
2014-Dec-10 23:32N 48°08' W 123°25'0 0.0
2014-Dec-10 22:31N 48°08' W 123°25'0 0.0
2014-Dec-10 21:31N 48°08' W 123°25'0 0.1
2014-Dec-10 20:31N 48°08' W 123°25'0 0.1
2014-Dec-10 19:28N 48°08' W 123°25'1 1.4
2014-Dec-10 18:33N 48°09' W 123°24'4 4.1
2014-Dec-10 17:33N 48°11' W 123°29'5 5.2
2014-Dec-10 16:30N 48°13' W 123°37'5 5.6
2014-Dec-10 15:33N 48°12' W 123°45'3 2.8
2014-Dec-10 14:34N 48°12' W 123°41'1 0.9
2014-Dec-10 13:33N 48°13' W 123°41'7 6.5
2014-Dec-10 12:27N 48°13' W 123°51'6 6.5
2014-Dec-10 11:33N 48°14' W 123°60'6 6.4
2014-Dec-10 10:33N 48°17' W 124°09'6 5.7
2014-Dec-10 09:34N 48°19' W 124°17'1 0.6
2014-Dec-10 08:24N 48°18' W 124°16'4 4.4
2014-Dec-10 07:33N 48°17' W 124°11'4 4.4
2014-Dec-10 06:33N 48°15' W 124°05'5 5.3
2014-Dec-10 05:33N 48°12' W 123°58'6 6.0
2014-Dec-10 04:33N 48°12' W 123°49'6 6.0
2014-Dec-10 03:33N 48°12' W 123°40'2 2.3
2014-Dec-10 02:31N 48°13' W 123°44'4 3.9
2014-Dec-10 01:33N 48°13' W 123°49'5 4.9
2014-Dec-10 00:33N 48°13' W 123°57'5 5.2
2014-Dec-09 23:33N 48°15' W 124°04'6 5.8
2014-Dec-09 22:33N 48°18' W 124°12'5 5.4
2014-Dec-09 21:33N 48°20' W 124°19'3 3.0
2014-Dec-09 20:32N 48°20' W 124°24'4 3.9
2014-Dec-09 19:32N 48°19' W 124°18'4 4.0
2014-Dec-09 18:33N 48°17' W 124°13'4 3.8
2014-Dec-09 17:33N 48°15' W 124°08'5 5.1
2014-Dec-09 16:34N 48°13' W 124°01'5 5.0
2014-Dec-09 15:33N 48°12' W 123°54'4 4.0
2014-Dec-09 14:33N 48°12' W 123°48'3 3.1
2014-Dec-09 13:34N 48°12' W 123°43'3 2.8
2014-Dec-09 12:33N 48°12' W 123°39'7 5.8
2014-Dec-09 11:20N 48°13' W 123°50'23 4.7
2014-Dec-09 06:33N 48°21' W 124°21'3 3.1
2014-Dec-09 05:34N 48°22' W 124°26'3 2.9
2014-Dec-09 04:33N 48°23' W 124°30'5 5.0
2014-Dec-09 03:33N 48°20' W 124°23'6 4.9
2014-Dec-09 02:25N 48°18' W 124°16'4 4.8
2014-Dec-09 01:28N 48°16' W 124°10'4 4.5
2014-Dec-09 00:33N 48°14' W 124°04'4 3.9
2014-Dec-08 23:32N 48°13' W 123°59'3 3.5
2014-Dec-08 22:34N 48°12' W 123°54'4 4.3
2014-Dec-08 21:33N 48°12' W 123°47'6 5.6
2014-Dec-08 20:34N 48°12' W 123°39'6 5.8
2014-Dec-08 19:33N 48°11' W 123°30'5 5.0
2014-Dec-08 18:33N 48°08' W 123°24'1 1.2
2014-Dec-08 17:33N 48°07' W 123°25'0 0.0
2014-Dec-08 16:33N 48°07' W 123°25'0 0.0
2014-Dec-08 15:32N 48°07' W 123°25'0 0.0
2014-Dec-08 14:32N 48°07' W 123°25'0 0.1
2014-Dec-08 13:31N 48°08' W 123°25'0 0.0
2014-Dec-08 12:31N 48°08' W 123°25'0 0.0
2014-Dec-08 11:31N 48°08' W 123°25'0 0.0
2014-Dec-08 10:22N 48°08' W 123°25'0 0.1
2014-Dec-08 09:31N 48°07' W 123°25'0 0.0
2014-Dec-08 08:31N 48°07' W 123°25'0 0.0
2014-Dec-08 07:31N 48°08' W 123°25'0 0.0
2014-Dec-08 06:31N 48°08' W 123°25'0 0.0
2014-Dec-08 05:31N 48°08' W 123°25'0 0.0
2014-Dec-08 04:28N 48°08' W 123°25'0 0.0
2014-Dec-08 03:33N 48°08' W 123°25'0 0.0
2014-Dec-08 02:33N 48°08' W 123°25'0 0.0
2014-Dec-08 01:33N 48°08' W 123°25'0 0.0
2014-Dec-08 00:33N 48°08' W 123°25'0 0.0
2014-Dec-08 00:27N 48°08' W 123°25'0 0.0
2014-Dec-07 23:33N 48°08' W 123°25'0 0.1
2014-Dec-07 23:27N 48°08' W 123°25'0 0.0
2014-Dec-07 22:33N 48°08' W 123°25'0 0.0
2014-Dec-07 21:56N 48°08' W 123°25'0 0.0
2014-Dec-07 21:33N 48°08' W 123°25'0 0.0
2014-Dec-07 21:16N 48°08' W 123°25'0 0.1
2014-Dec-07 20:33N 48°08' W 123°25'0 0.0
2014-Dec-07 20:21N 48°08' W 123°25'0 0.0
2014-Dec-07 19:33N 48°07' W 123°25'0 0.0
2014-Dec-07 18:36N 48°07' W 123°25'0 0.0
2014-Dec-07 18:33N 48°07' W 123°25'0 0.0
2014-Dec-07 17:33N 48°07' W 123°25'0 0.0
2014-Dec-07 16:33N 48°07' W 123°25'0 0.0
2014-Dec-07 15:33N 48°07' W 123°25'0 0.1
2014-Dec-07 14:33N 48°08' W 123°25'0 0.1
2014-Dec-07 14:05N 48°08' W 123°25'0 0.0
2014-Dec-07 13:33N 48°08' W 123°25'0 0.1
2014-Dec-07 13:15N 48°08' W 123°25'0 0.1
2014-Dec-07 12:33N 48°08' W 123°25'0 0.1
2014-Dec-07 11:33N 48°08' W 123°25'0 0.0
2014-Dec-07 10:33N 48°08' W 123°25'0 0.0
2014-Dec-07 09:33N 48°08' W 123°25'0 0.1
2014-Dec-07 08:33N 48°08' W 123°25'0 0.1
2014-Dec-07 07:33N 48°07' W 123°25'0 0.0
2014-Dec-07 06:49N 48°07' W 123°25'0 0.0
2014-Dec-07 06:33N 48°07' W 123°25'0 0.0
2014-Dec-07 05:33N 48°08' W 123°25'0 0.1
2014-Dec-07 04:44N 48°08' W 123°25'0 0.2
2014-Dec-07 04:33N 48°08' W 123°25'0 1.3
2014-Dec-07 04:24N 48°08' W 123°25'2 2.3
2014-Dec-07 03:33N 48°10' W 123°26'4 3.8
2014-Dec-07 02:33N 48°12' W 123°30'4 3.6
2014-Dec-07 01:27N 48°13' W 123°36'4 4.7
2014-Dec-07 00:33N 48°13' W 123°42'5 5.1
2014-Dec-06 23:32N 48°13' W 123°50'6 5.7
2014-Dec-06 22:32N 48°14' W 123°59'6 5.9
2014-Dec-06 21:33N 48°16' W 124°06'6 5.8
2014-Dec-06 20:33N 48°19' W 124°14'6 5.9
2014-Dec-06 19:33N 48°21' W 124°22'7 7.0
2014-Dec-06 18:33N 48°24' W 124°32'6 6.2
2014-Dec-06 17:33N 48°27' W 124°40'7 6.8
2014-Dec-06 16:33N 48°27' W 124°51'23 2.3
2014-Dec-06 06:32N 48°06' W 125°08'5 4.9
2014-Dec-06 05:33N 48°11' W 125°05'5 5.2
2014-Dec-06 04:33N 48°16' W 125°02'5 5.5
2014-Dec-06 03:33N 48°21' W 124°59'6 5.8
2014-Dec-06 02:33N 48°26' W 124°55'7 7.0
2014-Dec-06 01:33N 48°26' W 124°45'8 7.5
2014-Dec-06 00:33N 48°23' W 124°34'7 7.1
2014-Dec-05 23:33N 48°21' W 124°24'9 7.4
2014-Dec-05 22:18N 48°17' W 124°12'5 6.8
2014-Dec-05 21:33N 48°14' W 124°05'6 6.4
2014-Dec-05 20:33N 48°12' W 123°56'6 6.4
2014-Dec-05 19:33N 48°12' W 123°46'8 7.7
2014-Dec-05 18:33N 48°12' W 123°35'7 7.1
2014-Dec-05 17:33N 48°12' W 123°24'6 6.1
2014-Dec-05 16:33N 48°13' W 123°15'8 7.6
2014-Dec-05 15:33N 48°17' W 123°06'8 7.0
2014-Dec-05 14:24N 48°22' W 122°55'6 6.4
2014-Dec-05 13:24N 48°25' W 122°47'4 5.2
2014-Dec-05 12:33N 48°29' W 122°45'4 4.4
2014-Dec-05 11:33N 48°34' W 122°45'2 1.9
2014-Dec-05 10:33N 48°35' W 122°45'3 2.6
2014-Dec-05 09:33N 48°38' W 122°44'4 3.5
2014-Dec-05 08:32N 48°41' W 122°44'6 5.9
2014-Dec-05 07:30N 48°48' W 122°44'2 1.5
2014-Dec-05 06:05N 48°50' W 122°43'0 0.0
2014-Dec-04 18:03N 48°49' W 122°43'0 0.0
2014-Dec-04 17:33N 48°49' W 122°43'  
Track history (hours):
 
Tides and Currents Weather Stations Pressure Air Temp Water Temp Dewpoint Dewpoint Depression Visibility Wind Speed Wind Dir Waves Ship Positions

Adriatic Sea

Owner: Kirby Offshore Marine, LLC, Seattle, WA. More information available from US FCC via Universal Licensing System and Coast Guard Vessel Documentation Center.

Last reported at 2014-Dec-14 16:17 UTC. Time now 2014-Dec-18 20:13 UTC.
Position N 45°05' W 125°00'.

Length 42 m.

Type: Tug. MMSI: 366910890.

Date/timePositionNaut miles runAvg speedWind from/ knotsBaromVisibWave heightAir tempDewpointWater temp
2014-Dec-14 16:17N 45°05' W 125°00'9 4.5
2014-Dec-14 14:14N 45°14' W 124°60'4 4.9
2014-Dec-14 13:20N 45°18' W 125°00'4 5.3
2014-Dec-14 12:33N 45°22' W 124°60'6 5.6
2014-Dec-14 11:33N 45°28' W 125°00'6 5.9
2014-Dec-14 10:33N 45°34' W 125°00'6 6.2
2014-Dec-14 09:33N 45°40' W 125°00'7 6.8
2014-Dec-14 08:33N 45°47' W 125°00'7 7.0
2014-Dec-14 07:33N 45°54' W 125°00'7 7.2
2014-Dec-14 06:33N 46°01' W 125°00'7 7.4
2014-Dec-14 05:33N 46°09' W 125°00'7 7.4
2014-Dec-14 04:33N 46°16' W 125°00'7 7.1
2014-Dec-14 03:33N 46°23' W 125°00'7 6.7
2014-Dec-14 02:33N 46°30' W 125°00'7 6.5
2014-Dec-14 01:33N 46°36' W 125°00'7 6.5
2014-Dec-14 00:28N 46°43' W 124°60'6 6.5
2014-Dec-13 23:33N 46°49' W 125°00'73 5.9
2014-Dec-13 11:11N 48°02' W 125°10'4 5.7
2014-Dec-13 10:28N 48°06' W 125°08'6 6.0
2014-Dec-13 09:30N 48°11' W 125°05'6 6.2
2014-Dec-13 08:33N 48°17' W 125°02'7 6.5
2014-Dec-13 07:33N 48°23' W 124°58'6 6.4
2014-Dec-13 06:33N 48°27' W 124°51'8 7.5
2014-Dec-13 05:33N 48°25' W 124°40'8 7.6
2014-Dec-13 04:33N 48°22' W 124°29'7 6.8
2014-Dec-13 03:33N 48°19' W 124°20'6 6.1
2014-Dec-13 02:32N 48°17' W 124°11'6 6.2
2014-Dec-13 01:32N 48°14' W 124°03'6 6.3
2014-Dec-13 00:33N 48°12' W 123°54'7 7.3
2014-Dec-12 23:33N 48°12' W 123°43'8 7.5
2014-Dec-12 22:33N 48°12' W 123°32'7 6.6
2014-Dec-12 21:33N 48°08' W 123°24'1 1.1
2014-Dec-12 20:30N 48°08' W 123°25'0 0.0
2014-Dec-12 19:33N 48°08' W 123°25'0 0.1
2014-Dec-12 18:27N 48°08' W 123°25'0 0.0
2014-Dec-12 17:18N 48°08' W 123°25'0 0.1
2014-Dec-12 16:18N 48°08' W 123°25'0 0.0
2014-Dec-12 15:33N 48°08' W 123°25'0 0.0
2014-Dec-12 14:27N 48°08' W 123°25'0 0.0
2014-Dec-12 13:24N 48°08' W 123°25'0 0.0
2014-Dec-12 12:33N 48°08' W 123°25'0 0.0
2014-Dec-12 11:33N 48°08' W 123°25'0 0.1
2014-Dec-12 10:30N 48°08' W 123°25'0 0.0
2014-Dec-12 09:29N 48°08' W 123°25'0 0.0
2014-Dec-12 08:32N 48°08' W 123°25'0 0.0
2014-Dec-12 07:32N 48°08' W 123°25'0 0.1
2014-Dec-12 06:32N 48°07' W 123°25'0 0.0
2014-Dec-12 04:20N 48°08' W 123°25'0 0.1
2014-Dec-12 03:32N 48°08' W 123°25'0 0.0
2014-Dec-12 02:26N 48°08' W 123°25'0 0.0
2014-Dec-12 01:20N 48°08' W 123°25'0 0.0
2014-Dec-12 00:29N 48°08' W 123°25'0 0.1
2014-Dec-11 23:32N 48°08' W 123°25'0 0.0
2014-Dec-11 22:32N 48°08' W 123°25'0 0.0
2014-Dec-11 21:32N 48°08' W 123°25'0 0.0
2014-Dec-11 20:32N 48°08' W 123°25'0 0.0
2014-Dec-11 19:32N 48°08' W 123°25'0 0.0
2014-Dec-11 18:29N 48°08' W 123°25'0 0.0
2014-Dec-11 17:05N 48°08' W 123°25'0 0.0
2014-Dec-11 16:11N 48°08' W 123°25'0 0.0
2014-Dec-11 15:32N 48°08' W 123°25'0 0.0
2014-Dec-11 14:29N 48°08' W 123°25'0 0.0
2014-Dec-11 13:32N 48°08' W 123°25'0 0.0
2014-Dec-11 12:32N 48°08' W 123°25'0 0.0
2014-Dec-11 11:29N 48°08' W 123°25'0 0.0
2014-Dec-11 10:32N 48°08' W 123°25'0 0.0
2014-Dec-11 09:29N 48°08' W 123°25'0 0.0
2014-Dec-11 08:29N 48°08' W 123°25'0 0.0
2014-Dec-11 07:29N 48°08' W 123°25'0 0.0
2014-Dec-11 06:32N 48°08' W 123°25'0 0.1
2014-Dec-11 05:32N 48°08' W 123°25'0 0.0
2014-Dec-11 04:32N 48°08' W 123°25'0 0.0
2014-Dec-11 03:32N 48°08' W 123°25'0 0.1
2014-Dec-11 02:32N 48°08' W 123°25'0 0.0
2014-Dec-11 01:32N 48°08' W 123°25'0 0.1
2014-Dec-11 00:23N 48°08' W 123°25'0 0.1
2014-Dec-10 23:32N 48°08' W 123°25'0 0.0
2014-Dec-10 22:31N 48°08' W 123°25'0 0.0
2014-Dec-10 21:31N 48°08' W 123°25'0 0.1
2014-Dec-10 20:31N 48°08' W 123°25'0 0.1
2014-Dec-10 19:28N 48°08' W 123°25'1 1.4
2014-Dec-10 18:33N 48°09' W 123°24'4 4.1
2014-Dec-10 17:33N 48°11' W 123°29'5 5.2
2014-Dec-10 16:30N 48°13' W 123°37'5 5.6
2014-Dec-10 15:33N 48°12' W 123°45'3 2.8
2014-Dec-10 14:34N 48°12' W 123°41'1 0.9
2014-Dec-10 13:33N 48°13' W 123°41'7 6.5
2014-Dec-10 12:27N 48°13' W 123°51'6 6.5
2014-Dec-10 11:33N 48°14' W 123°60'6 6.4
2014-Dec-10 10:33N 48°17' W 124°09'6 5.7
2014-Dec-10 09:34N 48°19' W 124°17'1 0.6
2014-Dec-10 08:24N 48°18' W 124°16'4 4.4
2014-Dec-10 07:33N 48°17' W 124°11'4 4.4
2014-Dec-10 06:33N 48°15' W 124°05'5 5.3
2014-Dec-10 05:33N 48°12' W 123°58'6 6.0
2014-Dec-10 04:33N 48°12' W 123°49'6 6.0
2014-Dec-10 03:33N 48°12' W 123°40'2 2.3
2014-Dec-10 02:31N 48°13' W 123°44'4 3.9
2014-Dec-10 01:33N 48°13' W 123°49'5 4.9
2014-Dec-10 00:33N 48°13' W 123°57'5 5.2
2014-Dec-09 23:33N 48°15' W 124°04'6 5.8
2014-Dec-09 22:33N 48°18' W 124°12'5 5.4
2014-Dec-09 21:33N 48°20' W 124°19'3 3.0
2014-Dec-09 20:32N 48°20' W 124°24'4 3.9
2014-Dec-09 19:32N 48°19' W 124°18'4 4.0
2014-Dec-09 18:33N 48°17' W 124°13'4 3.8
2014-Dec-09 17:33N 48°15' W 124°08'5 5.1
2014-Dec-09 16:34N 48°13' W 124°01'5 5.0
2014-Dec-09 15:33N 48°12' W 123°54'4 4.0
2014-Dec-09 14:33N 48°12' W 123°48'3 3.1
2014-Dec-09 13:34N 48°12' W 123°43'3 2.8
2014-Dec-09 12:33N 48°12' W 123°39'7 5.8
2014-Dec-09 11:20N 48°13' W 123°50'23 4.7
2014-Dec-09 06:33N 48°21' W 124°21'3 3.1
2014-Dec-09 05:34N 48°22' W 124°26'3 2.9
2014-Dec-09 04:33N 48°23' W 124°30'5 5.0
2014-Dec-09 03:33N 48°20' W 124°23'6 4.9
2014-Dec-09 02:25N 48°18' W 124°16'4 4.8
2014-Dec-09 01:28N 48°16' W 124°10'4 4.5
2014-Dec-09 00:33N 48°14' W 124°04'4 3.9
2014-Dec-08 23:32N 48°13' W 123°59'3 3.5
2014-Dec-08 22:34N 48°12' W 123°54'4 4.3
2014-Dec-08 21:33N 48°12' W 123°47'6 5.6
2014-Dec-08 20:34N 48°12' W 123°39'6 5.8
2014-Dec-08 19:33N 48°11' W 123°30'5 5.0
2014-Dec-08 18:33N 48°08' W 123°24'1 1.2
2014-Dec-08 17:33N 48°07' W 123°25'0 0.0
2014-Dec-08 16:33N 48°07' W 123°25'0 0.0
2014-Dec-08 15:32N 48°07' W 123°25'0 0.0
2014-Dec-08 14:32N 48°07' W 123°25'0 0.1
2014-Dec-08 13:31N 48°08' W 123°25'0 0.0
2014-Dec-08 12:31N 48°08' W 123°25'0 0.0
2014-Dec-08 11:31N 48°08' W 123°25'0 0.0
2014-Dec-08 10:22N 48°08' W 123°25'0 0.1
2014-Dec-08 09:31N 48°07' W 123°25'0 0.0
2014-Dec-08 08:31N 48°07' W 123°25'0 0.0
2014-Dec-08 07:31N 48°08' W 123°25'0 0.0
2014-Dec-08 06:31N 48°08' W 123°25'0 0.0
2014-Dec-08 05:31N 48°08' W 123°25'0 0.0
2014-Dec-08 04:28N 48°08' W 123°25'0 0.0
2014-Dec-08 03:33N 48°08' W 123°25'0 0.0
2014-Dec-08 02:33N 48°08' W 123°25'0 0.0
2014-Dec-08 01:33N 48°08' W 123°25'0 0.0
2014-Dec-08 00:33N 48°08' W 123°25'0 0.0
2014-Dec-08 00:27N 48°08' W 123°25'0 0.0
2014-Dec-07 23:33N 48°08' W 123°25'0 0.1
2014-Dec-07 23:27N 48°08' W 123°25'0 0.0
2014-Dec-07 22:33N 48°08' W 123°25'0 0.0
2014-Dec-07 21:56N 48°08' W 123°25'0 0.0
2014-Dec-07 21:33N 48°08' W 123°25'0 0.0
2014-Dec-07 21:16N 48°08' W 123°25'0 0.1
2014-Dec-07 20:33N 48°08' W 123°25'0 0.0
2014-Dec-07 20:21N 48°08' W 123°25'0 0.0
2014-Dec-07 19:33N 48°07' W 123°25'0 0.0
2014-Dec-07 18:36N 48°07' W 123°25'0 0.0
2014-Dec-07 18:33N 48°07' W 123°25'0 0.0
2014-Dec-07 17:33N 48°07' W 123°25'0 0.0
2014-Dec-07 16:33N 48°07' W 123°25'0 0.0
2014-Dec-07 15:33N 48°07' W 123°25'0 0.1
2014-Dec-07 14:33N 48°08' W 123°25'0 0.1
2014-Dec-07 14:05N 48°08' W 123°25'0 0.0
2014-Dec-07 13:33N 48°08' W 123°25'0 0.1
2014-Dec-07 13:15N 48°08' W 123°25'0 0.1
2014-Dec-07 12:33N 48°08' W 123°25'0 0.1
2014-Dec-07 11:33N 48°08' W 123°25'0 0.0
2014-Dec-07 10:33N 48°08' W 123°25'0 0.0
2014-Dec-07 09:33N 48°08' W 123°25'0 0.1
2014-Dec-07 08:33N 48°08' W 123°25'0 0.1
2014-Dec-07 07:33N 48°07' W 123°25'0 0.0
2014-Dec-07 06:49N 48°07' W 123°25'0 0.0
2014-Dec-07 06:33N 48°07' W 123°25'0 0.0
2014-Dec-07 05:33N 48°08' W 123°25'0 0.1
2014-Dec-07 04:44N 48°08' W 123°25'0 0.2
2014-Dec-07 04:33N 48°08' W 123°25'0 1.3
2014-Dec-07 04:24N 48°08' W 123°25'2 2.3
2014-Dec-07 03:33N 48°10' W 123°26'4 3.8
2014-Dec-07 02:33N 48°12' W 123°30'4 3.6
2014-Dec-07 01:27N 48°13' W 123°36'4 4.7
2014-Dec-07 00:33N 48°13' W 123°42'5 5.1
2014-Dec-06 23:32N 48°13' W 123°50'6 5.7
2014-Dec-06 22:32N 48°14' W 123°59'6 5.9
2014-Dec-06 21:33N 48°16' W 124°06'6 5.8
2014-Dec-06 20:33N 48°19' W 124°14'6 5.9
2014-Dec-06 19:33N 48°21' W 124°22'7 7.0
2014-Dec-06 18:33N 48°24' W 124°32'6 6.2
2014-Dec-06 17:33N 48°27' W 124°40'7 6.8
2014-Dec-06 16:33N 48°27' W 124°51'23 2.3
2014-Dec-06 06:32N 48°06' W 125°08'5 4.9
2014-Dec-06 05:33N 48°11' W 125°05'5 5.2
2014-Dec-06 04:33N 48°16' W 125°02'5 5.5
2014-Dec-06 03:33N 48°21' W 124°59'6 5.8
2014-Dec-06 02:33N 48°26' W 124°55'7 7.0
2014-Dec-06 01:33N 48°26' W 124°45'8 7.5
2014-Dec-06 00:33N 48°23' W 124°34'7 7.1
2014-Dec-05 23:33N 48°21' W 124°24'9 7.4
2014-Dec-05 22:18N 48°17' W 124°12'5 6.8
2014-Dec-05 21:33N 48°14' W 124°05'6 6.4
2014-Dec-05 20:33N 48°12' W 123°56'6 6.4
2014-Dec-05 19:33N 48°12' W 123°46'8 7.7
2014-Dec-05 18:33N 48°12' W 123°35'7 7.1
2014-Dec-05 17:33N 48°12' W 123°24'6 6.1
2014-Dec-05 16:33N 48°13' W 123°15'8 7.6
2014-Dec-05 15:33N 48°17' W 123°06'8 7.0
2014-Dec-05 14:24N 48°22' W 122°55'6 6.4
2014-Dec-05 13:24N 48°25' W 122°47'4 5.2
2014-Dec-05 12:33N 48°29' W 122°45'4 4.4
2014-Dec-05 11:33N 48°34' W 122°45'2 1.9
2014-Dec-05 10:33N 48°35' W 122°45'3 2.6
2014-Dec-05 09:33N 48°38' W 122°44'4 3.5
2014-Dec-05 08:32N 48°41' W 122°44'6 5.9
2014-Dec-05 07:30N 48°48' W 122°44'2 1.5
2014-Dec-05 06:05N 48°50' W 122°43'0 0.0
2014-Dec-04 18:03N 48°49' W 122°43'0 0.0
2014-Dec-04 17:33N 48°49' W 122°43'  

Dump ship's entire track history